sensor_id;sensor_type;location;lat;lon;timestamp;P1;durP1;ratioP1;P2;durP2;ratioP2
13263;SDS011;6700;51.988;7.646;2023-08-20T00:00:32;11.73;;;6.47;;
13263;SDS011;6700;51.988;7.646;2023-08-20T00:03:10;7.83;;;6.27;;
13263;SDS011;6700;51.988;7.646;2023-08-20T00:05:50;13.93;;;6.37;;
13263;SDS011;6700;51.988;7.646;2023-08-20T00:08:20;9.43;;;5.85;;
13263;SDS011;6700;51.988;7.646;2023-08-20T00:10:47;9.00;;;6.70;;
13263;SDS011;6700;51.988;7.646;2023-08-20T00:13:15;9.70;;;6.87;;
13263;SDS011;6700;51.988;7.646;2023-08-20T00:15:46;10.10;;;6.65;;
13263;SDS011;6700;51.988;7.646;2023-08-20T00:18:16;15.17;;;7.80;;
13263;SDS011;6700;51.988;7.646;2023-08-20T00:20:44;9.07;;;6.20;;
13263;SDS011;6700;51.988;7.646;2023-08-20T00:23:12;11.00;;;6.73;;
13263;SDS011;6700;51.988;7.646;2023-08-20T00:25:44;8.60;;;6.83;;
13263;SDS011;6700;51.988;7.646;2023-08-20T00:28:16;7.93;;;6.30;;
13263;SDS011;6700;51.988;7.646;2023-08-20T00:30:50;11.47;;;6.70;;
13263;SDS011;6700;51.988;7.646;2023-08-20T00:33:22;7.23;;;5.63;;
13263;SDS011;6700;51.988;7.646;2023-08-20T00:35:58;7.93;;;6.03;;
13263;SDS011;6700;51.988;7.646;2023-08-20T00:38:30;8.17;;;6.80;;
13263;SDS011;6700;51.988;7.646;2023-08-20T00:41:01;8.43;;;6.53;;
13263;SDS011;6700;51.988;7.646;2023-08-20T00:43:29;10.30;;;7.10;;
13263;SDS011;6700;51.988;7.646;2023-08-20T00:45:58;8.17;;;6.50;;
13263;SDS011;6700;51.988;7.646;2023-08-20T00:48:34;9.83;;;6.63;;
13263;SDS011;6700;51.988;7.646;2023-08-20T00:51:02;10.03;;;8.23;;
13263;SDS011;6700;51.988;7.646;2023-08-20T00:53:33;12.33;;;8.17;;
13263;SDS011;6700;51.988;7.646;2023-08-20T00:56:01;9.13;;;7.20;;
13263;SDS011;6700;51.988;7.646;2023-08-20T00:58:28;10.67;;;7.07;;
13263;SDS011;6700;51.988;7.646;2023-08-20T01:01:01;12.40;;;8.33;;
13263;SDS011;6700;51.988;7.646;2023-08-20T01:03:30;11.60;;;8.00;;
13263;SDS011;6700;51.988;7.646;2023-08-20T01:08:52;12.30;;;7.43;;
13263;SDS011;6700;51.988;7.646;2023-08-20T01:11:26;12.60;;;6.77;;
13263;SDS011;6700;51.988;7.646;2023-08-20T01:13:59;9.13;;;7.10;;
13263;SDS011;6700;51.988;7.646;2023-08-20T01:16:28;9.57;;;6.57;;
13263;SDS011;6700;51.988;7.646;2023-08-20T01:18:57;11.90;;;7.50;;
13263;SDS011;6700;51.988;7.646;2023-08-20T01:21:37;9.57;;;7.50;;
13263;SDS011;6700;51.988;7.646;2023-08-20T01:24:10;7.37;;;6.67;;
13263;SDS011;6700;51.988;7.646;2023-08-20T01:29:33;9.13;;;6.87;;
13263;SDS011;6700;51.988;7.646;2023-08-20T01:32:08;7.77;;;6.60;;
13263;SDS011;6700;51.988;7.646;2023-08-20T01:34:36;9.87;;;6.50;;
13263;SDS011;6700;51.988;7.646;2023-08-20T01:37:05;12.23;;;7.17;;
13263;SDS011;6700;51.988;7.646;2023-08-20T01:39:33;8.30;;;7.17;;
13263;SDS011;6700;51.988;7.646;2023-08-20T01:42:01;10.60;;;7.97;;
13263;SDS011;6700;51.988;7.646;2023-08-20T01:44:34;12.43;;;7.37;;
13263;SDS011;6700;51.988;7.646;2023-08-20T01:47:02;10.67;;;6.80;;
13263;SDS011;6700;51.988;7.646;2023-08-20T01:49:42;11.57;;;7.23;;
13263;SDS011;6700;51.988;7.646;2023-08-20T01:52:09;11.70;;;6.90;;
13263;SDS011;6700;51.988;7.646;2023-08-20T01:54:37;10.13;;;6.93;;
13263;SDS011;6700;51.988;7.646;2023-08-20T01:57:04;9.17;;;6.77;;
13263;SDS011;6700;51.988;7.646;2023-08-20T01:59:31;9.93;;;6.80;;
13263;SDS011;6700;51.988;7.646;2023-08-20T02:01:58;10.23;;;6.40;;
13263;SDS011;6700;51.988;7.646;2023-08-20T02:04:26;9.37;;;6.77;;
13263;SDS011;6700;51.988;7.646;2023-08-20T02:06:53;7.43;;;5.57;;
13263;SDS011;6700;51.988;7.646;2023-08-20T02:09:20;10.20;;;6.27;;
13263;SDS011;6700;51.988;7.646;2023-08-20T02:11:47;10.07;;;5.83;;
13263;SDS011;6700;51.988;7.646;2023-08-20T02:14:18;11.07;;;6.73;;
13263;SDS011;6700;51.988;7.646;2023-08-20T02:16:51;10.33;;;6.87;;
13263;SDS011;6700;51.988;7.646;2023-08-20T02:19:19;10.00;;;5.80;;
13263;SDS011;6700;51.988;7.646;2023-08-20T02:21:46;7.27;;;5.73;;
13263;SDS011;6700;51.988;7.646;2023-08-20T02:24:14;9.20;;;5.90;;
13263;SDS011;6700;51.988;7.646;2023-08-20T02:26:47;7.53;;;6.10;;
13263;SDS011;6700;51.988;7.646;2023-08-20T02:29:19;7.13;;;6.23;;
13263;SDS011;6700;51.988;7.646;2023-08-20T02:31:46;7.20;;;5.53;;
13263;SDS011;6700;51.988;7.646;2023-08-20T02:34:16;10.03;;;5.97;;
13263;SDS011;6700;51.988;7.646;2023-08-20T02:36:43;8.40;;;6.70;;
13263;SDS011;6700;51.988;7.646;2023-08-20T02:39:20;6.97;;;5.90;;
13263;SDS011;6700;51.988;7.646;2023-08-20T02:41:47;7.17;;;5.77;;
13263;SDS011;6700;51.988;7.646;2023-08-20T02:44:21;10.20;;;6.37;;
13263;SDS011;6700;51.988;7.646;2023-08-20T02:47:00;7.47;;;6.30;;
13263;SDS011;6700;51.988;7.646;2023-08-20T02:49:28;9.27;;;6.30;;
13263;SDS011;6700;51.988;7.646;2023-08-20T02:51:55;9.07;;;6.70;;
13263;SDS011;6700;51.988;7.646;2023-08-20T02:54:23;10.63;;;6.53;;
13263;SDS011;6700;51.988;7.646;2023-08-20T02:56:55;10.17;;;7.33;;
13263;SDS011;6700;51.988;7.646;2023-08-20T02:59:29;12.53;;;6.17;;
13263;SDS011;6700;51.988;7.646;2023-08-20T03:01:56;8.83;;;5.87;;
13263;SDS011;6700;51.988;7.646;2023-08-20T03:04:23;11.07;;;6.33;;
13263;SDS011;6700;51.988;7.646;2023-08-20T03:06:57;9.77;;;5.67;;
13263;SDS011;6700;51.988;7.646;2023-08-20T03:09:24;8.83;;;6.40;;
13263;SDS011;6700;51.988;7.646;2023-08-20T03:11:51;11.77;;;5.60;;
13263;SDS011;6700;51.988;7.646;2023-08-20T03:14:19;8.27;;;5.83;;
13263;SDS011;6700;51.988;7.646;2023-08-20T03:16:46;11.30;;;6.20;;
13263;SDS011;6700;51.988;7.646;2023-08-20T03:19:15;10.53;;;5.83;;
13263;SDS011;6700;51.988;7.646;2023-08-20T03:21:43;13.10;;;6.43;;
13263;SDS011;6700;51.988;7.646;2023-08-20T03:27:04;11.03;;;5.97;;
13263;SDS011;6700;51.988;7.646;2023-08-20T03:29:31;8.33;;;5.57;;
13263;SDS011;6700;51.988;7.646;2023-08-20T03:31:59;7.77;;;5.83;;
13263;SDS011;6700;51.988;7.646;2023-08-20T03:34:26;13.63;;;7.13;;
13263;SDS011;6700;51.988;7.646;2023-08-20T03:36:53;11.33;;;6.73;;
13263;SDS011;6700;51.988;7.646;2023-08-20T03:39:21;9.77;;;6.27;;
13263;SDS011;6700;51.988;7.646;2023-08-20T03:41:49;10.20;;;5.90;;
13263;SDS011;6700;51.988;7.646;2023-08-20T03:44:16;9.40;;;6.17;;
13263;SDS011;6700;51.988;7.646;2023-08-20T03:46:45;9.27;;;6.10;;
13263;SDS011;6700;51.988;7.646;2023-08-20T03:49:15;8.67;;;6.20;;
13263;SDS011;6700;51.988;7.646;2023-08-20T03:51:42;12.03;;;6.33;;
13263;SDS011;6700;51.988;7.646;2023-08-20T03:54:09;6.23;;;5.60;;
13263;SDS011;6700;51.988;7.646;2023-08-20T03:56:39;9.63;;;6.80;;
13263;SDS011;6700;51.988;7.646;2023-08-20T03:59:08;7.50;;;5.40;;
13263;SDS011;6700;51.988;7.646;2023-08-20T04:01:35;8.43;;;5.93;;
13263;SDS011;6700;51.988;7.646;2023-08-20T04:04:04;9.80;;;6.53;;
13263;SDS011;6700;51.988;7.646;2023-08-20T04:06:32;7.93;;;5.90;;
13263;SDS011;6700;51.988;7.646;2023-08-20T04:09:00;8.13;;;6.57;;
13263;SDS011;6700;51.988;7.646;2023-08-20T04:11:27;9.30;;;6.37;;
13263;SDS011;6700;51.988;7.646;2023-08-20T04:13:54;6.40;;;5.40;;
13263;SDS011;6700;51.988;7.646;2023-08-20T04:16:26;6.63;;;5.97;;
13263;SDS011;6700;51.988;7.646;2023-08-20T04:18:54;7.33;;;5.83;;
13263;SDS011;6700;51.988;7.646;2023-08-20T04:21:22;8.33;;;6.67;;
13263;SDS011;6700;51.988;7.646;2023-08-20T04:23:49;6.70;;;5.70;;
13263;SDS011;6700;51.988;7.646;2023-08-20T04:26:17;8.47;;;6.13;;
13263;SDS011;6700;51.988;7.646;2023-08-20T04:28:45;9.60;;;6.87;;
13263;SDS011;6700;51.988;7.646;2023-08-20T04:31:12;10.13;;;6.77;;
13263;SDS011;6700;51.988;7.646;2023-08-20T04:33:39;7.93;;;6.20;;
13263;SDS011;6700;51.988;7.646;2023-08-20T04:36:07;7.87;;;6.50;;
13263;SDS011;6700;51.988;7.646;2023-08-20T04:38:34;11.67;;;7.43;;
13263;SDS011;6700;51.988;7.646;2023-08-20T04:41:01;9.00;;;7.07;;
13263;SDS011;6700;51.988;7.646;2023-08-20T04:43:28;11.60;;;8.20;;
13263;SDS011;6700;51.988;7.646;2023-08-20T04:45:56;9.00;;;7.40;;
13263;SDS011;6700;51.988;7.646;2023-08-20T04:48:24;10.00;;;7.33;;
13263;SDS011;6700;51.988;7.646;2023-08-20T04:50:51;12.07;;;8.23;;
13263;SDS011;6700;51.988;7.646;2023-08-20T04:53:18;14.87;;;8.80;;
13263;SDS011;6700;51.988;7.646;2023-08-20T04:55:45;10.00;;;8.73;;
13263;SDS011;6700;51.988;7.646;2023-08-20T04:58:12;13.80;;;9.07;;
13263;SDS011;6700;51.988;7.646;2023-08-20T05:00:39;10.70;;;8.90;;
13263;SDS011;6700;51.988;7.646;2023-08-20T05:03:06;9.93;;;8.00;;
13263;SDS011;6700;51.988;7.646;2023-08-20T05:05:34;13.67;;;9.67;;
13263;SDS011;6700;51.988;7.646;2023-08-20T05:08:01;14.43;;;10.87;;
13263;SDS011;6700;51.988;7.646;2023-08-20T05:10:28;14.47;;;11.00;;
13263;SDS011;6700;51.988;7.646;2023-08-20T05:12:55;14.07;;;10.20;;
13263;SDS011;6700;51.988;7.646;2023-08-20T05:15:23;13.60;;;11.87;;
13263;SDS011;6700;51.988;7.646;2023-08-20T05:17:50;12.03;;;9.80;;
13263;SDS011;6700;51.988;7.646;2023-08-20T05:20:18;13.40;;;10.20;;
13263;SDS011;6700;51.988;7.646;2023-08-20T05:22:45;13.93;;;10.33;;
13263;SDS011;6700;51.988;7.646;2023-08-20T05:25:12;13.63;;;10.73;;
13263;SDS011;6700;51.988;7.646;2023-08-20T05:27:41;13.90;;;10.20;;
13263;SDS011;6700;51.988;7.646;2023-08-20T05:30:08;16.37;;;10.70;;
13263;SDS011;6700;51.988;7.646;2023-08-20T05:32:35;13.60;;;10.53;;
13263;SDS011;6700;51.988;7.646;2023-08-20T05:35:03;12.90;;;10.53;;
13263;SDS011;6700;51.988;7.646;2023-08-20T05:37:31;14.20;;;10.23;;
13263;SDS011;6700;51.988;7.646;2023-08-20T05:39:58;12.80;;;10.87;;
13263;SDS011;6700;51.988;7.646;2023-08-20T05:42:25;12.53;;;10.50;;
13263;SDS011;6700;51.988;7.646;2023-08-20T05:44:52;11.20;;;9.97;;
13263;SDS011;6700;51.988;7.646;2023-08-20T05:47:19;16.67;;;10.50;;
13263;SDS011;6700;51.988;7.646;2023-08-20T05:49:46;14.10;;;9.67;;
13263;SDS011;6700;51.988;7.646;2023-08-20T05:52:14;13.30;;;9.73;;
13263;SDS011;6700;51.988;7.646;2023-08-20T05:54:41;16.00;;;10.27;;
13263;SDS011;6700;51.988;7.646;2023-08-20T05:57:08;12.73;;;9.47;;
13263;SDS011;6700;51.988;7.646;2023-08-20T05:59:35;10.90;;;9.63;;
13263;SDS011;6700;51.988;7.646;2023-08-20T06:02:02;15.97;;;10.13;;
13263;SDS011;6700;51.988;7.646;2023-08-20T06:04:30;16.17;;;10.60;;
13263;SDS011;6700;51.988;7.646;2023-08-20T06:06:57;14.73;;;10.63;;
13263;SDS011;6700;51.988;7.646;2023-08-20T06:09:25;15.40;;;11.77;;
13263;SDS011;6700;51.988;7.646;2023-08-20T06:11:52;14.30;;;10.37;;
13263;SDS011;6700;51.988;7.646;2023-08-20T06:14:19;12.18;;;10.80;;
13263;SDS011;6700;51.988;7.646;2023-08-20T06:16:46;13.90;;;10.67;;
13263;SDS011;6700;51.988;7.646;2023-08-20T06:19:13;13.80;;;10.87;;
13263;SDS011;6700;51.988;7.646;2023-08-20T06:21:41;19.75;;;12.18;;
13263;SDS011;6700;51.988;7.646;2023-08-20T06:24:08;18.60;;;10.90;;
13263;SDS011;6700;51.988;7.646;2023-08-20T06:26:36;18.13;;;12.93;;
13263;SDS011;6700;51.988;7.646;2023-08-20T06:29:03;12.88;;;10.60;;
13263;SDS011;6700;51.988;7.646;2023-08-20T06:31:30;18.77;;;13.90;;
13263;SDS011;6700;51.988;7.646;2023-08-20T06:33:58;19.70;;;12.93;;
13263;SDS011;6700;51.988;7.646;2023-08-20T06:36:25;15.93;;;13.02;;
13263;SDS011;6700;51.988;7.646;2023-08-20T06:38:52;16.42;;;11.57;;
13263;SDS011;6700;51.988;7.646;2023-08-20T06:41:20;16.60;;;13.43;;
13263;SDS011;6700;51.988;7.646;2023-08-20T06:43:47;15.63;;;12.93;;
13263;SDS011;6700;51.988;7.646;2023-08-20T06:46:14;16.98;;;13.38;;
13263;SDS011;6700;51.988;7.646;2023-08-20T06:48:42;16.95;;;13.70;;
13263;SDS011;6700;51.988;7.646;2023-08-20T06:51:15;13.85;;;11.93;;
13263;SDS011;6700;51.988;7.646;2023-08-20T06:53:42;17.65;;;13.30;;
13263;SDS011;6700;51.988;7.646;2023-08-20T06:56:09;18.60;;;13.95;;
13263;SDS011;6700;51.988;7.646;2023-08-20T06:58:40;17.40;;;13.88;;
13263;SDS011;6700;51.988;7.646;2023-08-20T07:01:08;21.90;;;15.10;;
13263;SDS011;6700;51.988;7.646;2023-08-20T07:03:41;19.67;;;14.23;;
13263;SDS011;6700;51.988;7.646;2023-08-20T07:06:09;23.33;;;16.65;;
13263;SDS011;6700;51.988;7.646;2023-08-20T07:08:36;22.15;;;16.48;;
13263;SDS011;6700;51.988;7.646;2023-08-20T07:11:05;20.70;;;15.60;;
13263;SDS011;6700;51.988;7.646;2023-08-20T07:13:33;19.60;;;15.15;;
13263;SDS011;6700;51.988;7.646;2023-08-20T07:16:01;18.50;;;16.33;;
13263;SDS011;6700;51.988;7.646;2023-08-20T07:18:30;20.90;;;17.13;;
13263;SDS011;6700;51.988;7.646;2023-08-20T07:20:58;20.40;;;16.52;;
13263;SDS011;6700;51.988;7.646;2023-08-20T07:23:25;18.48;;;15.57;;
13263;SDS011;6700;51.988;7.646;2023-08-20T07:26:09;19.80;;;15.93;;
13263;SDS011;6700;51.988;7.646;2023-08-20T07:28:38;19.92;;;15.70;;
13263;SDS011;6700;51.988;7.646;2023-08-20T07:31:24;22.60;;;17.10;;
13263;SDS011;6700;51.988;7.646;2023-08-20T07:33:53;20.27;;;16.92;;
13263;SDS011;6700;51.988;7.646;2023-08-20T07:36:22;18.17;;;16.38;;
13263;SDS011;6700;51.988;7.646;2023-08-20T07:38:50;21.98;;;17.75;;
13263;SDS011;6700;51.988;7.646;2023-08-20T07:41:18;23.52;;;15.93;;
13263;SDS011;6700;51.988;7.646;2023-08-20T07:43:49;18.20;;;16.10;;
13263;SDS011;6700;51.988;7.646;2023-08-20T07:46:18;20.80;;;18.35;;
13263;SDS011;6700;51.988;7.646;2023-08-20T07:48:47;21.25;;;17.20;;
13263;SDS011;6700;51.988;7.646;2023-08-20T07:51:14;19.90;;;17.42;;
13263;SDS011;6700;51.988;7.646;2023-08-20T07:53:41;20.73;;;17.88;;
13263;SDS011;6700;51.988;7.646;2023-08-20T07:56:10;18.90;;;16.95;;
13263;SDS011;6700;51.988;7.646;2023-08-20T07:58:39;24.17;;;18.48;;
13263;SDS011;6700;51.988;7.646;2023-08-20T08:01:06;20.75;;;18.42;;
13263;SDS011;6700;51.988;7.646;2023-08-20T08:03:35;20.23;;;18.13;;
13263;SDS011;6700;51.988;7.646;2023-08-20T08:06:03;23.83;;;17.35;;
13263;SDS011;6700;51.988;7.646;2023-08-20T08:08:31;22.83;;;18.90;;
13263;SDS011;6700;51.988;7.646;2023-08-20T08:10:58;18.65;;;16.75;;
13263;SDS011;6700;51.988;7.646;2023-08-20T08:13:25;19.52;;;17.42;;
13263;SDS011;6700;51.988;7.646;2023-08-20T08:15:53;18.73;;;16.73;;
13263;SDS011;6700;51.988;7.646;2023-08-20T08:18:20;19.23;;;17.23;;
13263;SDS011;6700;51.988;7.646;2023-08-20T08:20:49;22.58;;;17.80;;
13263;SDS011;6700;51.988;7.646;2023-08-20T08:23:17;21.15;;;18.25;;
13263;SDS011;6700;51.988;7.646;2023-08-20T08:25:44;20.83;;;18.42;;
13263;SDS011;6700;51.988;7.646;2023-08-20T08:28:11;18.58;;;16.58;;
13263;SDS011;6700;51.988;7.646;2023-08-20T08:30:38;18.90;;;16.90;;
13263;SDS011;6700;51.988;7.646;2023-08-20T08:33:09;23.30;;;18.08;;
13263;SDS011;6700;51.988;7.646;2023-08-20T08:35:36;20.17;;;16.90;;
13263;SDS011;6700;51.988;7.646;2023-08-20T08:38:04;22.08;;;18.65;;
13263;SDS011;6700;51.988;7.646;2023-08-20T08:40:31;21.40;;;19.10;;
13263;SDS011;6700;51.988;7.646;2023-08-20T08:42:58;23.38;;;18.08;;
13263;SDS011;6700;51.988;7.646;2023-08-20T08:45:26;22.73;;;18.58;;
13263;SDS011;6700;51.988;7.646;2023-08-20T08:47:54;21.55;;;17.85;;
13263;SDS011;6700;51.988;7.646;2023-08-20T08:50:22;19.70;;;17.65;;
13263;SDS011;6700;51.988;7.646;2023-08-20T08:52:50;20.13;;;17.83;;
13263;SDS011;6700;51.988;7.646;2023-08-20T08:55:18;23.25;;;19.98;;
13263;SDS011;6700;51.988;7.646;2023-08-20T08:57:46;20.20;;;18.00;;
13263;SDS011;6700;51.988;7.646;2023-08-20T09:00:14;19.55;;;17.52;;
13263;SDS011;6700;51.988;7.646;2023-08-20T09:02:41;18.83;;;16.83;;
13263;SDS011;6700;51.988;7.646;2023-08-20T09:05:09;27.65;;;20.48;;
13263;SDS011;6700;51.988;7.646;2023-08-20T09:07:40;22.58;;;19.42;;
13263;SDS011;6700;51.988;7.646;2023-08-20T09:10:08;23.58;;;20.13;;
13263;SDS011;6700;51.988;7.646;2023-08-20T09:12:35;23.25;;;20.80;;
13263;SDS011;6700;51.988;7.646;2023-08-20T09:15:03;21.63;;;19.33;;
13263;SDS011;6700;51.988;7.646;2023-08-20T09:17:30;22.63;;;20.27;;
13263;SDS011;6700;51.988;7.646;2023-08-20T09:19:58;23.65;;;20.45;;
13263;SDS011;6700;51.988;7.646;2023-08-20T09:22:26;21.77;;;19.48;;
13263;SDS011;6700;51.988;7.646;2023-08-20T09:24:56;22.55;;;18.80;;
13263;SDS011;6700;51.988;7.646;2023-08-20T09:27:24;22.38;;;19.17;;
13263;SDS011;6700;51.988;7.646;2023-08-20T09:29:54;27.10;;;19.73;;
13263;SDS011;6700;51.988;7.646;2023-08-20T09:32:25;21.75;;;19.45;;
13263;SDS011;6700;51.988;7.646;2023-08-20T09:34:54;22.35;;;18.08;;
13263;SDS011;6700;51.988;7.646;2023-08-20T09:37:23;20.30;;;17.65;;
13263;SDS011;6700;51.988;7.646;2023-08-20T09:39:50;19.50;;;17.45;;
13263;SDS011;6700;51.988;7.646;2023-08-20T09:42:18;18.70;;;16.80;;
13263;SDS011;6700;51.988;7.646;2023-08-20T09:44:46;20.25;;;17.88;;
13263;SDS011;6700;51.988;7.646;2023-08-20T09:47:17;18.48;;;16.45;;
13263;SDS011;6700;51.988;7.646;2023-08-20T09:49:46;17.08;;;15.07;;
13263;SDS011;6700;51.988;7.646;2023-08-20T09:52:22;18.27;;;15.98;;
13263;SDS011;6700;51.988;7.646;2023-08-20T09:54:55;18.90;;;17.05;;
13263;SDS011;6700;51.988;7.646;2023-08-20T09:57:37;16.17;;;14.40;;
13263;SDS011;6700;51.988;7.646;2023-08-20T10:00:05;14.48;;;13.05;;
13263;SDS011;6700;51.988;7.646;2023-08-20T10:02:36;14.10;;;12.00;;
13263;SDS011;6700;51.988;7.646;2023-08-20T10:05:07;14.18;;;12.77;;
13263;SDS011;6700;51.988;7.646;2023-08-20T10:07:35;15.10;;;12.40;;
13263;SDS011;6700;51.988;7.646;2023-08-20T10:10:06;11.73;;;10.10;;
13263;SDS011;6700;51.988;7.646;2023-08-20T10:12:34;12.32;;;11.02;;
13263;SDS011;6700;51.988;7.646;2023-08-20T10:15:02;11.75;;;10.13;;
13263;SDS011;6700;51.988;7.646;2023-08-20T10:17:29;9.07;;;7.97;;
13263;SDS011;6700;51.988;7.646;2023-08-20T10:19:58;8.30;;;7.50;;
13263;SDS011;6700;51.988;7.646;2023-08-20T10:22:48;9.77;;;7.82;;
13263;SDS011;6700;51.988;7.646;2023-08-20T10:25:21;9.15;;;7.78;;
13263;SDS011;6700;51.988;7.646;2023-08-20T10:27:51;9.55;;;8.32;;
13263;SDS011;6700;51.988;7.646;2023-08-20T10:30:19;8.63;;;7.13;;
13263;SDS011;6700;51.988;7.646;2023-08-20T10:32:49;8.68;;;6.32;;
13263;SDS011;6700;51.988;7.646;2023-08-20T10:35:17;6.35;;;5.75;;
13263;SDS011;6700;51.988;7.646;2023-08-20T10:38:00;8.35;;;7.25;;
13263;SDS011;6700;51.988;7.646;2023-08-20T10:46:02;8.48;;;5.20;;
13263;SDS011;6700;51.988;7.646;2023-08-20T10:48:35;9.40;;;6.65;;
13263;SDS011;6700;51.988;7.646;2023-08-20T10:51:09;6.22;;;5.60;;
13263;SDS011;6700;51.988;7.646;2023-08-20T10:53:37;6.38;;;5.13;;
13263;SDS011;6700;51.988;7.646;2023-08-20T10:56:10;7.85;;;5.82;;
13263;SDS011;6700;51.988;7.646;2023-08-20T10:58:44;5.78;;;5.28;;
13263;SDS011;6700;51.988;7.646;2023-08-20T11:01:14;6.55;;;5.95;;
13263;SDS011;6700;51.988;7.646;2023-08-20T11:03:45;6.28;;;5.68;;
13263;SDS011;6700;51.988;7.646;2023-08-20T11:06:14;7.82;;;6.03;;
13263;SDS011;6700;51.988;7.646;2023-08-20T11:08:41;7.43;;;6.13;;
13263;SDS011;6700;51.988;7.646;2023-08-20T11:11:09;6.72;;;5.80;;
13263;SDS011;6700;51.988;7.646;2023-08-20T11:13:37;6.47;;;5.78;;
13263;SDS011;6700;51.988;7.646;2023-08-20T11:16:05;6.80;;;6.10;;
13263;SDS011;6700;51.988;7.646;2023-08-20T11:18:32;7.70;;;6.10;;
13263;SDS011;6700;51.988;7.646;2023-08-20T11:21:00;7.45;;;6.63;;
13263;SDS011;6700;51.988;7.646;2023-08-20T11:23:27;7.55;;;6.80;;
13263;SDS011;6700;51.988;7.646;2023-08-20T11:25:56;7.97;;;7.18;;
13263;SDS011;6700;51.988;7.646;2023-08-20T11:28:24;7.55;;;6.68;;
13263;SDS011;6700;51.988;7.646;2023-08-20T11:30:51;8.70;;;5.82;;
13263;SDS011;6700;51.988;7.646;2023-08-20T11:33:20;6.35;;;5.85;;
13263;SDS011;6700;51.988;7.646;2023-08-20T11:35:48;10.95;;;6.60;;
13263;SDS011;6700;51.988;7.646;2023-08-20T11:38:15;7.00;;;5.97;;
13263;SDS011;6700;51.988;7.646;2023-08-20T11:40:42;6.43;;;5.85;;
13263;SDS011;6700;51.988;7.646;2023-08-20T11:43:09;6.00;;;5.50;;
13263;SDS011;6700;51.988;7.646;2023-08-20T11:45:44;5.60;;;5.03;;
13263;SDS011;6700;51.988;7.646;2023-08-20T11:48:15;9.60;;;6.47;;
13263;SDS011;6700;51.988;7.646;2023-08-20T11:50:42;6.57;;;5.97;;
13263;SDS011;6700;51.988;7.646;2023-08-20T11:53:10;6.93;;;6.25;;
13263;SDS011;6700;51.988;7.646;2023-08-20T11:55:40;9.02;;;6.63;;
13263;SDS011;6700;51.988;7.646;2023-08-20T11:58:09;7.03;;;6.43;;
13263;SDS011;6700;51.988;7.646;2023-08-20T12:00:36;6.45;;;5.95;;
13263;SDS011;6700;51.988;7.646;2023-08-20T12:03:04;7.60;;;6.63;;
13263;SDS011;6700;51.988;7.646;2023-08-20T12:05:32;8.20;;;6.35;;
13263;SDS011;6700;51.988;7.646;2023-08-20T12:08:00;8.45;;;6.97;;
13263;SDS011;6700;51.988;7.646;2023-08-20T12:10:30;7.78;;;6.97;;
13263;SDS011;6700;51.988;7.646;2023-08-20T12:12:57;7.85;;;7.15;;
13263;SDS011;6700;51.988;7.646;2023-08-20T12:15:25;6.32;;;5.75;;
13263;SDS011;6700;51.988;7.646;2023-08-20T12:17:59;6.43;;;4.93;;
13263;SDS011;6700;51.988;7.646;2023-08-20T12:20:27;4.80;;;4.40;;
13263;SDS011;6700;51.988;7.646;2023-08-20T12:22:57;5.43;;;4.55;;
13263;SDS011;6700;51.988;7.646;2023-08-20T12:25:25;5.32;;;4.82;;
13263;SDS011;6700;51.988;7.646;2023-08-20T12:27:53;5.72;;;4.65;;
13263;SDS011;6700;51.988;7.646;2023-08-20T12:30:20;5.75;;;4.80;;
13263;SDS011;6700;51.988;7.646;2023-08-20T12:32:48;5.15;;;4.13;;
13263;SDS011;6700;51.988;7.646;2023-08-20T12:35:15;4.53;;;4.13;;
13263;SDS011;6700;51.988;7.646;2023-08-20T12:37:42;6.35;;;4.05;;
13263;SDS011;6700;51.988;7.646;2023-08-20T12:40:10;4.90;;;4.50;;
13263;SDS011;6700;51.988;7.646;2023-08-20T12:42:39;5.78;;;4.32;;
13263;SDS011;6700;51.988;7.646;2023-08-20T12:45:09;10.27;;;4.60;;
13263;SDS011;6700;51.988;7.646;2023-08-20T12:47:39;9.75;;;5.85;;
13263;SDS011;6700;51.988;7.646;2023-08-20T12:50:06;6.70;;;5.13;;
13263;SDS011;6700;51.988;7.646;2023-08-20T12:52:34;6.75;;;5.30;;
13263;SDS011;6700;51.988;7.646;2023-08-20T12:55:02;7.47;;;5.40;;
13263;SDS011;6700;51.988;7.646;2023-08-20T12:57:30;5.80;;;5.30;;
13263;SDS011;6700;51.988;7.646;2023-08-20T12:59:57;8.95;;;6.15;;
13263;SDS011;6700;51.988;7.646;2023-08-20T13:02:25;6.32;;;5.72;;
13263;SDS011;6700;51.988;7.646;2023-08-20T13:04:52;6.82;;;6.10;;
13263;SDS011;6700;51.988;7.646;2023-08-20T13:07:20;7.00;;;6.40;;
13263;SDS011;6700;51.988;7.646;2023-08-20T13:09:47;7.38;;;6.68;;
13263;SDS011;6700;51.988;7.646;2023-08-20T13:12:16;7.35;;;6.50;;
13263;SDS011;6700;51.988;7.646;2023-08-20T13:14:45;7.68;;;6.47;;
13263;SDS011;6700;51.988;7.646;2023-08-20T13:17:12;6.53;;;6.00;;
13263;SDS011;6700;51.988;7.646;2023-08-20T13:19:40;6.15;;;5.50;;
13263;SDS011;6700;51.988;7.646;2023-08-20T13:22:07;5.53;;;4.97;;
13263;SDS011;6700;51.988;7.646;2023-08-20T13:24:34;5.82;;;5.22;;
13263;SDS011;6700;51.988;7.646;2023-08-20T13:27:03;4.75;;;4.18;;
13263;SDS011;6700;51.988;7.646;2023-08-20T13:29:31;5.78;;;4.70;;
13263;SDS011;6700;51.988;7.646;2023-08-20T13:31:58;6.80;;;4.88;;
13263;SDS011;6700;51.988;7.646;2023-08-20T13:34:27;7.45;;;5.38;;
13263;SDS011;6700;51.988;7.646;2023-08-20T13:36:55;5.90;;;5.20;;
13263;SDS011;6700;51.988;7.646;2023-08-20T13:39:22;6.20;;;4.97;;
13263;SDS011;6700;51.988;7.646;2023-08-20T13:41:49;6.85;;;4.80;;
13263;SDS011;6700;51.988;7.646;2023-08-20T13:44:19;6.43;;;4.72;;
13263;SDS011;6700;51.988;7.646;2023-08-20T13:46:48;5.60;;;4.68;;
13263;SDS011;6700;51.988;7.646;2023-08-20T13:49:15;5.53;;;4.20;;
13263;SDS011;6700;51.988;7.646;2023-08-20T13:51:42;6.18;;;4.03;;
13263;SDS011;6700;51.988;7.646;2023-08-20T13:54:10;4.32;;;3.92;;
13263;SDS011;6700;51.988;7.646;2023-08-20T13:56:37;5.40;;;4.25;;
13263;SDS011;6700;51.988;7.646;2023-08-20T13:59:04;6.40;;;4.93;;
13263;SDS011;6700;51.988;7.646;2023-08-20T14:01:31;23.73;;;21.20;;
13263;SDS011;6700;51.988;7.646;2023-08-20T14:03:59;6.72;;;6.00;;
13263;SDS011;6700;51.988;7.646;2023-08-20T14:06:26;21.75;;;19.65;;
13263;SDS011;6700;51.988;7.646;2023-08-20T14:08:53;8.05;;;5.50;;
13263;SDS011;6700;51.988;7.646;2023-08-20T14:11:20;5.20;;;4.40;;
13263;SDS011;6700;51.988;7.646;2023-08-20T14:13:48;6.22;;;4.68;;
13263;SDS011;6700;51.988;7.646;2023-08-20T14:16:15;7.07;;;4.72;;
13263;SDS011;6700;51.988;7.646;2023-08-20T14:18:42;5.40;;;4.88;;
13263;SDS011;6700;51.988;7.646;2023-08-20T14:21:10;8.50;;;3.92;;
13263;SDS011;6700;51.988;7.646;2023-08-20T14:23:39;4.47;;;3.70;;
13263;SDS011;6700;51.988;7.646;2023-08-20T14:26:06;5.25;;;3.80;;
13263;SDS011;6700;51.988;7.646;2023-08-20T14:28:36;3.55;;;3.25;;
13263;SDS011;6700;51.988;7.646;2023-08-20T14:31:03;4.63;;;3.20;;
13263;SDS011;6700;51.988;7.646;2023-08-20T14:33:31;6.32;;;3.65;;
13263;SDS011;6700;51.988;7.646;2023-08-20T14:35:58;10.30;;;4.28;;
13263;SDS011;6700;51.988;7.646;2023-08-20T14:38:27;4.35;;;3.80;;
13263;SDS011;6700;51.988;7.646;2023-08-20T14:40:58;3.85;;;3.42;;
13263;SDS011;6700;51.988;7.646;2023-08-20T14:43:29;4.65;;;3.47;;
13263;SDS011;6700;51.988;7.646;2023-08-20T14:45:56;4.35;;;3.03;;
13263;SDS011;6700;51.988;7.646;2023-08-20T14:48:24;4.53;;;3.33;;
13263;SDS011;6700;51.988;7.646;2023-08-20T14:50:54;4.50;;;2.60;;
13263;SDS011;6700;51.988;7.646;2023-08-20T14:53:23;3.45;;;2.70;;
13263;SDS011;6700;51.988;7.646;2023-08-20T14:55:51;5.15;;;2.50;;
13263;SDS011;6700;51.988;7.646;2023-08-20T14:58:19;3.50;;;2.45;;
13263;SDS011;6700;51.988;7.646;2023-08-20T15:00:48;3.95;;;2.95;;
13263;SDS011;6700;51.988;7.646;2023-08-20T15:03:18;6.20;;;2.95;;
13263;SDS011;6700;51.988;7.646;2023-08-20T15:05:47;6.25;;;2.95;;
13263;SDS011;6700;51.988;7.646;2023-08-20T15:08:14;3.97;;;2.92;;
13263;SDS011;6700;51.988;7.646;2023-08-20T15:10:42;5.80;;;2.42;;
13263;SDS011;6700;51.988;7.646;2023-08-20T15:13:09;6.95;;;2.75;;